Time;durP1;ratioP1;P1;durP2;ratioP2;P2;SDS_P1;SDS_P2;PMS_P1;PMS_P2;Temp;Humidity;BMP_temperature;BMP_pressure;BME280_temperature;BME280_humidity;BME280_pressure;Samples;Min_cycle;Max_cycle;Signal;HPM_P1;HPM_P2
2023/07/15 00:01:09;;;;;;;3.57;2.90;;;23.00;99.90;;;;;;4997535;28;20448;-69
2023/07/15 00:03:34;;;;;;;3.90;3.43;;;23.00;99.90;;;;;;4993962;28;20388;-69
2023/07/15 00:06:01;;;;;;;4.50;3.80;;;22.90;99.90;;;;;;4998821;28;20416;-69
2023/07/15 00:08:27;;;;;;;2.87;2.63;;;22.70;99.90;;;;;;5024037;23;20482;-68
2023/07/15 00:10:54;;;;;;;4.83;3.87;;;22.70;99.90;;;;;;5014910;28;20403;-69
2023/07/15 00:13:20;;;;;;;3.70;3.00;;;22.70;99.90;;;;;;5015011;28;20219;-68
2023/07/15 00:15:50;;;;;;;2.63;2.43;;;22.70;99.90;;;;;;5014624;28;20852;-68
2023/07/15 00:18:16;;;;;;;3.90;3.60;;;22.70;99.90;;;;;;5007029;28;20188;-68
2023/07/15 00:20:42;;;;;;;3.67;3.37;;;22.80;99.90;;;;;;5004905;28;20466;-68
2023/07/15 00:23:19;;;;;;;3.67;3.37;;;22.80;99.90;;;;;;5006313;28;20778;-68
2023/07/15 00:25:45;;;;;;;5.33;2.87;;;22.70;99.90;;;;;;5000248;28;20741;-68
2023/07/15 00:28:11;;;;;;;4.37;2.80;;;22.80;99.90;;;;;;5005679;28;20435;-68
2023/07/15 00:30:37;;;;;;;3.63;2.73;;;22.80;99.90;;;;;;5004387;28;20177;-69
2023/07/15 00:33:03;;;;;;;3.97;3.23;;;22.80;99.90;;;;;;5006437;28;20651;-69
2023/07/15 00:35:29;;;;;;;3.30;3.00;;;22.80;99.90;;;;;;5003013;28;20195;-68
2023/07/15 00:37:59;;;;;;;3.27;2.97;;;22.70;99.90;;;;;;5004483;28;20436;-68
2023/07/15 00:40:26;;;;;;;4.00;2.83;;;22.70;99.90;;;;;;5002405;28;20411;-67
2023/07/15 00:43:30;;;;;;;3.33;3.03;;;22.60;99.90;;;;;;5006133;28;20765;-68
2023/07/15 00:46:26;;;;;;;6.10;3.30;;;22.50;99.90;;;;;;4999943;28;20400;-68
2023/07/15 00:49:25;;;;;;;5.63;3.07;;;22.30;99.90;;;;;;5004274;28;20389;-68
2023/07/15 00:52:01;;;;;;;6.73;3.23;;;22.30;99.90;;;;;;4985857;28;20948;-68
2023/07/15 00:54:31;;;;;;;3.00;2.80;;;22.30;99.90;;;;;;5004733;28;20856;-68
2023/07/15 00:56:56;;;;;;;4.10;3.50;;;22.30;99.90;;;;;;5003351;28;20424;-68
2023/07/15 00:59:23;;;;;;;4.40;3.40;;;22.30;99.90;;;;;;5005785;28;20465;-67
2023/07/15 01:01:49;;;;;;;3.47;2.93;;;22.30;99.90;;;;;;5003381;28;20168;-68
2023/07/15 01:04:15;;;;;;;3.20;2.97;;;22.30;99.90;;;;;;5004937;28;20768;-68
2023/07/15 01:06:45;;;;;;;3.27;2.97;;;22.30;99.90;;;;;;5002087;28;20435;-67
2023/07/15 01:09:11;;;;;;;3.47;3.17;;;22.30;99.90;;;;;;4998923;28;20396;-68
2023/07/15 01:11:37;;;;;;;3.37;3.07;;;22.40;99.90;;;;;;4988889;28;20866;-68
2023/07/15 01:14:04;;;;;;;3.77;2.97;;;22.20;99.90;;;;;;5003277;28;20534;-67
2023/07/15 01:16:30;;;;;;;6.13;3.87;;;22.30;99.90;;;;;;5005490;28;20168;-68
2023/07/15 01:18:57;;;;;;;3.97;3.10;;;22.30;99.90;;;;;;5002790;28;20403;-68
2023/07/15 01:21:29;;;;;;;3.93;3.00;;;22.30;99.90;;;;;;5005040;28;20782;-67
2023/07/15 01:23:55;;;;;;;3.50;3.10;;;22.40;99.90;;;;;;5004905;28;20251;-68
2023/07/15 01:26:20;;;;;;;4.13;3.70;;;22.50;99.90;;;;;;5002232;28;20404;-67
2023/07/15 01:28:47;;;;;;;3.27;2.87;;;22.40;99.90;;;;;;5004596;28;20422;-68
2023/07/15 01:31:14;;;;;;;3.30;3.00;;;22.50;99.90;;;;;;5003518;28;20180;-68
2023/07/15 01:33:40;;;;;;;5.03;3.43;;;22.40;99.90;;;;;;5004293;28;20414;-68
2023/07/15 01:36:06;;;;;;;4.30;3.23;;;22.50;99.90;;;;;;5001491;28;20481;-68
2023/07/15 01:38:32;;;;;;;4.93;3.40;;;22.50;99.90;;;;;;5002792;28;20949;-68
2023/07/15 01:40:58;;;;;;;4.00;3.60;;;22.50;99.90;;;;;;5002601;28;20168;-68
2023/07/15 01:43:23;;;;;;;3.70;3.40;;;22.40;99.90;;;;;;5004823;28;20493;-68
2023/07/15 01:45:49;;;;;;;4.23;3.20;;;22.30;99.90;;;;;;5003340;28;20411;-68
2023/07/15 01:48:15;;;;;;;3.70;3.40;;;22.30;99.90;;;;;;5005824;28;20274;-68
2023/07/15 01:50:42;;;;;;;4.23;3.43;;;22.30;99.90;;;;;;4984571;28;20248;-68
2023/07/15 01:53:07;;;;;;;3.70;3.27;;;22.30;99.90;;;;;;5004372;28;20271;-68
2023/07/15 01:55:33;;;;;;;4.57;3.10;;;22.30;99.90;;;;;;4986879;28;20997;-68
2023/07/15 01:57:59;;;;;;;3.83;3.50;;;22.40;99.90;;;;;;5004663;28;20188;-68
2023/07/15 02:00:24;;;;;;;3.60;3.30;;;22.30;99.90;;;;;;4997793;28;20169;-67
2023/07/15 02:02:50;;;;;;;3.90;3.60;;;22.40;99.90;;;;;;5003526;28;20171;-67
2023/07/15 02:05:16;;;;;;;4.87;3.63;;;22.40;99.90;;;;;;5002985;28;20177;-68
2023/07/15 02:07:41;;;;;;;5.03;3.53;;;22.40;99.90;;;;;;5003963;28;20211;-68
2023/07/15 02:10:07;;;;;;;4.10;3.70;;;22.30;99.90;;;;;;5002672;28;20183;-68
2023/07/15 02:12:34;;;;;;;3.40;3.10;;;22.30;99.90;;;;;;5002561;28;20173;-68
2023/07/15 02:15:00;;;;;;;5.50;3.50;;;22.30;99.90;;;;;;5001995;28;20962;-67
2023/07/15 02:17:25;;;;;;;3.27;2.97;;;22.30;99.90;;;;;;5003764;28;20446;-67
2023/07/15 02:19:52;;;;;;;3.70;3.40;;;22.30;99.90;;;;;;5004023;28;20156;-68
2023/07/15 02:22:20;;;;;;;6.37;3.40;;;22.20;99.90;;;;;;5006801;28;20176;-66
2023/07/15 02:24:47;;;;;;;3.87;3.50;;;22.30;99.90;;;;;;5007089;28;20565;-67
2023/07/15 02:27:12;;;;;;;3.40;3.10;;;22.40;99.90;;;;;;5009169;28;20429;-67
2023/07/15 02:29:38;;;;;;;3.00;2.70;;;22.40;99.90;;;;;;5008623;28;20490;-68
2023/07/15 02:32:05;;;;;;;3.27;2.97;;;22.40;99.90;;;;;;5010977;28;20171;-68
2023/07/15 02:34:30;;;;;;;3.67;3.27;;;22.40;99.90;;;;;;5009090;28;20187;-68
2023/07/15 02:36:56;;;;;;;4.00;2.77;;;22.30;99.90;;;;;;5009545;28;20511;-68
2023/07/15 02:39:21;;;;;;;3.40;3.10;;;22.40;99.90;;;;;;5008101;28;20192;-68
2023/07/15 02:41:47;;;;;;;3.20;2.90;;;22.40;99.90;;;;;;5010326;28;20252;-68
2023/07/15 02:44:13;;;;;;;3.33;3.03;;;22.50;99.90;;;;;;4991903;28;20172;-68
2023/07/15 02:46:38;;;;;;;4.30;3.10;;;22.50;99.90;;;;;;5008856;28;20685;-68
2023/07/15 02:49:04;;;;;;;4.03;2.70;;;22.40;99.90;;;;;;5003764;28;20173;-68
2023/07/15 02:51:30;;;;;;;3.03;2.80;;;22.50;99.90;;;;;;5009208;28;20706;-68
2023/07/15 02:53:58;;;;;;;3.60;2.90;;;22.60;99.90;;;;;;5009982;28;20674;-68
2023/07/15 02:56:24;;;;;;;2.73;2.47;;;22.70;99.90;;;;;;5007603;28;20156;-67
2023/07/15 02:58:50;;;;;;;3.63;3.20;;;22.70;99.90;;;;;;5008352;28;20891;-68
2023/07/15 03:01:15;;;;;;;3.30;2.90;;;22.60;99.90;;;;;;5008793;28;20165;-68
2023/07/15 03:03:41;;;;;;;3.30;2.77;;;22.60;99.90;;;;;;5010712;28;20635;-68
2023/07/15 03:06:06;;;;;;;3.80;3.03;;;22.60;99.90;;;;;;5008012;28;20169;-68
2023/07/15 03:08:32;;;;;;;3.37;3.03;;;22.60;99.90;;;;;;5009027;28;20207;-68
2023/07/15 03:10:57;;;;;;;3.27;2.97;;;22.50;99.90;;;;;;4994298;28;20172;-68
2023/07/15 03:13:26;;;;;;;3.30;2.90;;;22.40;99.90;;;;;;4990351;28;20169;-67
2023/07/15 03:15:55;;;;;;;3.67;3.37;;;22.30;99.90;;;;;;4990658;28;20180;-68
2023/07/15 03:18:25;;;;;;;3.47;3.10;;;22.40;99.90;;;;;;5008447;28;20447;-68
2023/07/15 03:20:52;;;;;;;6.20;3.17;;;22.40;99.90;;;;;;5007530;28;20476;-68
2023/07/15 03:23:18;;;;;;;3.10;2.90;;;22.50;99.90;;;;;;5006373;28;20399;-68
2023/07/15 03:25:44;;;;;;;3.83;3.47;;;22.60;99.90;;;;;;5009585;28;20410;-68
2023/07/15 03:28:11;;;;;;;3.67;3.20;;;22.60;99.90;;;;;;5009540;28;20183;-68
2023/07/15 03:30:36;;;;;;;3.60;2.50;;;22.60;99.90;;;;;;5007509;28;20410;-68
2023/07/15 03:33:02;;;;;;;3.23;2.93;;;22.70;99.90;;;;;;5006367;28;20773;-68
2023/07/15 03:35:28;;;;;;;3.70;2.60;;;22.80;99.90;;;;;;5004785;28;20258;-68
2023/07/15 03:37:53;;;;;;;2.97;2.70;;;22.70;99.90;;;;;;5006649;28;20184;-68
2023/07/15 03:40:19;;;;;;;4.17;3.77;;;22.80;99.90;;;;;;5004719;28;20168;-68
2023/07/15 03:42:45;;;;;;;4.73;3.50;;;22.80;99.90;;;;;;5005629;28;20213;-67
2023/07/15 03:45:11;;;;;;;3.87;3.20;;;22.70;99.90;;;;;;5004516;28;20408;-70
2023/07/15 03:47:37;;;;;;;3.00;2.80;;;22.90;99.90;;;;;;5007014;28;20326;-70
2023/07/15 03:50:05;;;;;;;4.13;3.73;;;22.90;99.90;;;;;;5005571;28;20176;-70
2023/07/15 03:52:32;;;;;;;3.57;3.23;;;23.00;99.90;;;;;;5005840;28;20426;-69
2023/07/15 03:54:58;;;;;;;3.70;3.33;;;22.90;99.90;;;;;;5004047;28;20953;-69
2023/07/15 03:57:25;;;;;;;3.37;3.00;;;22.90;99.90;;;;;;5003987;28;20431;-69
2023/07/15 03:59:50;;;;;;;4.60;3.43;;;22.80;99.90;;;;;;5004462;28;20409;-69
2023/07/15 04:02:17;;;;;;;3.83;3.53;;;22.90;99.90;;;;;;5004205;28;20412;-70
2023/07/15 04:04:43;;;;;;;3.37;3.07;;;22.90;99.90;;;;;;5006717;28;20256;-69
2023/07/15 04:07:09;;;;;;;3.77;3.47;;;22.90;99.90;;;;;;5003952;28;20936;-69
2023/07/15 04:09:36;;;;;;;4.27;3.27;;;23.00;99.90;;;;;;5005856;28;20750;-69
2023/07/15 04:12:02;;;;;;;5.10;3.57;;;22.90;99.90;;;;;;5003900;28;20776;-69
2023/07/15 04:14:27;;;;;;;3.50;3.20;;;22.90;99.90;;;;;;5006276;28;20478;-70
2023/07/15 04:16:53;;;;;;;4.70;2.97;;;23.00;99.90;;;;;;5005308;28;20557;-70
2023/07/15 04:19:18;;;;;;;3.60;3.30;;;23.00;99.90;;;;;;5007132;28;20168;-70
2023/07/15 04:21:44;;;;;;;3.47;3.17;;;22.90;99.90;;;;;;5003418;28;20263;-70
2023/07/15 04:24:09;;;;;;;3.37;3.07;;;22.90;99.90;;;;;;5004850;28;20173;-70
2023/07/15 04:26:35;;;;;;;3.10;2.90;;;22.90;99.90;;;;;;5006168;28;20183;-70
2023/07/15 04:29:01;;;;;;;4.37;3.97;;;22.80;99.90;;;;;;5005601;28;20168;-69
2023/07/15 04:31:27;;;;;;;4.30;3.90;;;22.60;99.90;;;;;;5004380;28;20172;-69
2023/07/15 04:33:53;;;;;;;3.13;2.83;;;22.80;99.90;;;;;;5004107;28;21059;-69
2023/07/15 04:36:20;;;;;;;4.13;3.73;;;22.90;99.90;;;;;;5006058;28;20172;-70
2023/07/15 04:38:46;;;;;;;3.77;3.47;;;22.80;99.90;;;;;;5003429;28;20403;-69
2023/07/15 04:41:12;;;;;;;3.80;3.50;;;22.90;99.90;;;;;;5004896;28;20430;-69
2023/07/15 04:43:38;;;;;;;4.63;3.97;;;23.00;99.90;;;;;;5005941;28;20403;-69
2023/07/15 04:46:05;;;;;;;3.77;3.47;;;23.00;99.90;;;;;;5003410;28;20903;-69
2023/07/15 04:48:31;;;;;;;4.27;3.70;;;22.90;99.90;;;;;;5004418;28;20275;-69
2023/07/15 04:50:56;;;;;;;4.47;4.07;;;23.00;99.90;;;;;;5005249;28;20440;-69
2023/07/15 04:53:22;;;;;;;3.90;3.53;;;23.10;99.90;;;;;;5005591;28;20167;-68
2023/07/15 04:55:48;;;;;;;3.73;3.43;;;23.20;99.90;;;;;;5003796;28;20291;-68
2023/07/15 04:58:15;;;;;;;3.37;3.07;;;23.20;99.90;;;;;;5003505;28;20189;-68
2023/07/15 05:00:42;;;;;;;6.60;3.70;;;23.20;99.90;;;;;;5005116;28;20412;-69
2023/07/15 05:03:08;;;;;;;3.70;3.03;;;23.30;99.90;;;;;;5005321;28;20412;-68
2023/07/15 05:05:33;;;;;;;3.87;3.47;;;23.30;99.90;;;;;;5004471;28;20410;-69
2023/07/15 05:08:18;;;;;;;4.10;3.40;;;23.30;99.90;;;;;;5002093;28;20288;-68
2023/07/15 05:10:46;;;;;;;3.23;2.97;;;23.30;99.90;;;;;;5003791;28;20175;-69
2023/07/15 05:13:12;;;;;;;3.53;3.23;;;23.30;99.90;;;;;;5002888;28;20400;-68
2023/07/15 05:15:39;;;;;;;4.50;3.47;;;23.30;99.90;;;;;;5005367;28;20442;-69
2023/07/15 05:18:05;;;;;;;3.00;2.80;;;23.40;99.90;;;;;;5003223;28;20670;-68
2023/07/15 05:20:33;;;;;;;4.40;3.33;;;23.50;99.90;;;;;;5006629;28;21005;-68
2023/07/15 05:22:59;;;;;;;3.60;3.30;;;23.50;99.90;;;;;;5001874;28;20499;-67
2023/07/15 05:25:26;;;;;;;3.90;2.97;;;23.70;99.90;;;;;;5005132;28;20863;-68
2023/07/15 05:27:51;;;;;;;3.70;3.33;;;23.70;99.90;;;;;;5001037;28;20192;-68
2023/07/15 05:30:19;;;;;;;4.00;3.43;;;23.90;99.90;;;;;;5001518;28;20491;-67
2023/07/15 05:32:45;;;;;;;4.13;3.23;;;24.00;99.90;;;;;;4987628;28;20167;-68
2023/07/15 05:35:10;;;;;;;3.93;3.40;;;24.00;99.90;;;;;;5002814;28;20449;-69
2023/07/15 05:37:36;;;;;;;3.93;3.20;;;24.20;99.90;;;;;;5002413;28;20595;-68
2023/07/15 05:40:02;;;;;;;3.73;3.43;;;24.20;99.90;;;;;;5003778;28;20203;-67
2023/07/15 05:42:31;;;;;;;4.33;3.20;;;24.30;99.90;;;;;;4998146;28;20638;-67
2023/07/15 05:44:57;;;;;;;4.37;3.23;;;24.40;99.90;;;;;;4986052;28;20552;-68
2023/07/15 05:47:22;;;;;;;3.60;3.30;;;24.60;99.90;;;;;;5004350;28;20191;-68
2023/07/15 05:49:48;;;;;;;3.40;2.93;;;24.60;99.90;;;;;;5001121;28;20227;-69
2023/07/15 05:52:14;;;;;;;4.50;3.20;;;24.70;99.90;;;;;;4999983;28;20173;-70
2023/07/15 05:54:39;;;;;;;4.70;3.63;;;24.80;99.90;;;;;;5003961;28;20188;-70
2023/07/15 05:57:05;;;;;;;4.23;3.87;;;24.80;99.90;;;;;;5001473;28;20184;-68
2023/07/15 05:59:31;;;;;;;5.07;2.90;;;24.80;99.90;;;;;;5004629;28;20217;-69
2023/07/15 06:01:56;;;;;;;4.93;3.53;;;24.90;99.90;;;;;;5002636;28;20491;-68
2023/07/15 06:04:22;;;;;;;3.50;3.20;;;25.10;99.90;;;;;;5004821;28;20176;-69
2023/07/15 06:06:48;;;;;;;5.37;2.97;;;25.10;99.90;;;;;;5002920;28;20269;-67
2023/07/15 06:09:13;;;;;;;2.70;2.47;;;25.00;98.50;;;;;;5002683;28;20256;-69
2023/07/15 06:11:39;;;;;;;3.37;3.00;;;25.20;98.70;;;;;;5001856;28;20173;-68
2023/07/15 06:14:04;;;;;;;2.73;2.53;;;25.40;97.60;;;;;;5004282;28;20188;-69
2023/07/15 06:16:31;;;;;;;3.67;2.73;;;25.50;97.30;;;;;;5003006;28;20234;-68
2023/07/15 06:18:57;;;;;;;3.50;2.60;;;25.70;97.60;;;;;;5001956;28;20168;-70
2023/07/15 06:21:22;;;;;;;3.03;2.70;;;25.70;96.50;;;;;;5003050;28;20418;-68
2023/07/15 06:23:48;;;;;;;3.10;2.60;;;25.90;95.90;;;;;;5002124;28;20192;-68
2023/07/15 06:26:13;;;;;;;3.20;2.90;;;26.10;95.80;;;;;;5001882;28;20196;-69
2023/07/15 06:28:39;;;;;;;3.70;2.60;;;26.10;96.10;;;;;;5004297;28;20229;-68
2023/07/15 06:31:09;;;;;;;2.97;2.77;;;26.30;95.90;;;;;;5002704;28;20702;-69
2023/07/15 06:33:35;;;;;;;3.47;3.17;;;26.30;95.60;;;;;;5003083;28;20408;-69
2023/07/15 06:36:02;;;;;;;2.60;2.40;;;26.30;95.20;;;;;;5001443;28;20483;-69
2023/07/15 06:38:28;;;;;;;3.57;2.70;;;26.50;95.40;;;;;;5003792;28;20430;-69
2023/07/15 06:40:54;;;;;;;3.47;2.70;;;26.70;94.90;;;;;;5001102;28;20779;-69
2023/07/15 06:43:20;;;;;;;3.60;2.97;;;26.80;94.70;;;;;;5003527;28;20172;-69
2023/07/15 06:45:45;;;;;;;3.40;3.03;;;26.80;94.00;;;;;;5001682;28;20450;-69
2023/07/15 06:48:12;;;;;;;3.73;3.17;;;26.90;94.50;;;;;;5004028;28;20185;-68
2023/07/15 06:50:37;;;;;;;3.20;2.87;;;27.00;94.40;;;;;;5000225;28;20175;-68
2023/07/15 06:53:03;;;;;;;3.10;2.80;;;27.00;94.50;;;;;;5003279;28;20408;-68
2023/07/15 06:55:29;;;;;;;2.70;2.37;;;27.10;94.20;;;;;;5005462;28;20195;-68
2023/07/15 06:57:55;;;;;;;3.13;2.90;;;27.20;93.80;;;;;;5002880;28;20185;-69
2023/07/15 07:00:22;;;;;;;2.83;2.63;;;27.40;93.50;;;;;;5002061;28;20633;-69
2023/07/15 07:02:48;;;;;;;6.63;2.80;;;27.40;93.90;;;;;;5003940;28;20541;-69
2023/07/15 07:05:15;;;;;;;3.17;2.87;;;27.40;93.20;;;;;;5002114;28;20410;-69
2023/07/15 07:07:41;;;;;;;3.07;2.77;;;27.60;92.90;;;;;;5004024;28;20334;-69
2023/07/15 07:10:08;;;;;;;4.20;3.00;;;27.60;93.00;;;;;;5007197;28;20890;-69
2023/07/15 07:12:33;;;;;;;3.17;2.87;;;27.70;92.60;;;;;;5007332;28;20173;-69
2023/07/15 07:14:59;;;;;;;3.10;2.63;;;27.90;92.70;;;;;;5008106;28;20956;-69
2023/07/15 07:17:25;;;;;;;3.10;2.70;;;28.10;92.30;;;;;;5007788;28;20192;-69
2023/07/15 07:19:50;;;;;;;4.80;3.17;;;28.20;92.20;;;;;;5008520;28;20172;-68
2023/07/15 07:22:16;;;;;;;5.70;2.87;;;28.20;91.70;;;;;;5006915;28;20255;-69
2023/07/15 07:24:42;;;;;;;3.63;2.80;;;28.40;91.70;;;;;;5006872;28;20203;-69
2023/07/15 07:27:07;;;;;;;4.23;3.20;;;28.40;91.90;;;;;;5003166;28;20654;-69
2023/07/15 07:29:34;;;;;;;3.87;3.47;;;28.50;91.90;;;;;;5005144;28;20247;-69
2023/07/15 07:31:59;;;;;;;4.10;2.80;;;28.30;90.80;;;;;;5006522;28;20175;-70
2023/07/15 07:34:25;;;;;;;4.40;2.80;;;28.50;91.30;;;;;;4986931;28;20439;-69
2023/07/15 07:36:51;;;;;;;3.00;2.80;;;28.60;91.20;;;;;;5006371;28;20208;-69
2023/07/15 07:39:16;;;;;;;3.20;2.67;;;28.60;90.60;;;;;;5006525;28;20196;-69
2023/07/15 07:41:42;;;;;;;3.17;2.67;;;28.80;90.60;;;;;;5007421;28;20171;-69
2023/07/15 07:44:10;;;;;;;4.83;2.77;;;28.80;90.10;;;;;;4987246;28;20599;-69
2023/07/15 07:46:36;;;;;;;4.30;2.70;;;28.90;90.40;;;;;;5005620;28;20203;-69
2023/07/15 07:49:02;;;;;;;3.33;2.77;;;29.10;90.30;;;;;;5004962;28;20832;-69
2023/07/15 07:51:28;;;;;;;2.80;2.60;;;29.20;88.80;;;;;;5004659;28;20176;-68
2023/07/15 07:53:54;;;;;;;4.90;2.80;;;29.30;88.20;;;;;;5005747;28;20534;-69
2023/07/15 07:56:20;;;;;;;2.90;2.70;;;29.40;86.70;;;;;;5005880;28;20425;-69
2023/07/15 07:58:45;;;;;;;2.87;2.33;;;29.50;87.40;;;;;;5004322;28;20161;-69
2023/07/15 08:01:12;;;;;;;4.20;2.67;;;29.70;86.70;;;;;;5006134;28;20186;-69
2023/07/15 08:03:38;;;;;;;5.00;2.70;;;29.80;86.10;;;;;;5004708;28;20637;-68
2023/07/15 08:06:04;;;;;;;2.93;2.57;;;30.00;85.30;;;;;;5006806;28;20435;-69
2023/07/15 08:08:30;;;;;;;3.90;2.80;;;29.90;85.70;;;;;;5003342;28;20263;-68
2023/07/15 08:10:56;;;;;;;4.00;2.60;;;30.10;84.20;;;;;;5007449;28;20902;-69
2023/07/15 08:13:21;;;;;;;2.83;2.63;;;30.30;82.30;;;;;;5004094;28;20255;-70
2023/07/15 08:15:47;;;;;;;2.63;2.40;;;30.60;80.80;;;;;;5006447;28;20752;-69
2023/07/15 08:18:13;;;;;;;3.63;3.00;;;31.10;82.40;;;;;;5004431;28;20525;-69
2023/07/15 08:20:41;;;;;;;3.20;2.90;;;31.40;81.20;;;;;;5003146;28;20165;-70
2023/07/15 08:23:07;;;;;;;2.40;2.20;;;31.70;77.40;;;;;;5006258;28;20243;-69
2023/07/15 08:25:32;;;;;;;3.37;3.07;;;32.10;77.20;;;;;;5003834;28;20502;-69
2023/07/15 08:27:58;;;;;;;3.17;2.87;;;32.10;77.00;;;;;;5004659;28;20185;-70
2023/07/15 08:30:24;;;;;;;2.60;2.40;;;32.10;76.40;;;;;;5005144;28;20176;-68
2023/07/15 08:32:50;;;;;;;3.27;2.67;;;32.10;73.50;;;;;;5006108;28;20183;-68
2023/07/15 08:35:15;;;;;;;2.90;2.50;;;32.10;74.00;;;;;;5004542;28;20183;-69
2023/07/15 08:37:42;;;;;;;3.00;2.63;;;32.00;72.30;;;;;;5003287;28;20184;-70
2023/07/15 08:40:10;;;;;;;3.10;2.90;;;32.00;71.30;;;;;;5006958;28;20669;-69
2023/07/15 08:42:36;;;;;;;3.27;2.97;;;31.80;72.40;;;;;;5005498;28;20415;-69
2023/07/15 08:45:03;;;;;;;3.00;2.80;;;32.00;72.20;;;;;;5004848;28;20407;-69
2023/07/15 08:47:29;;;;;;;2.87;2.60;;;32.20;70.70;;;;;;5005093;28;20443;-69
2023/07/15 08:49:59;;;;;;;2.50;2.30;;;32.10;71.50;;;;;;5002840;28;20862;-69
2023/07/15 08:52:25;;;;;;;2.73;2.33;;;32.70;72.00;;;;;;5004184;28;20418;-69
2023/07/15 08:54:52;;;;;;;4.30;2.77;;;33.30;74.60;;;;;;5003312;28;20464;-67
2023/07/15 08:57:24;;;;;;;3.30;3.00;;;33.10;68.90;;;;;;5005537;28;20502;-70
2023/07/15 08:59:56;;;;;;;2.67;2.47;;;33.20;71.70;;;;;;5001992;28;20493;-69
2023/07/15 09:02:24;;;;;;;3.60;3.10;;;33.10;68.30;;;;;;4998750;28;20436;-68
2023/07/15 09:04:50;;;;;;;3.53;2.53;;;33.40;65.30;;;;;;5005018;28;20491;-68
2023/07/15 09:07:16;;;;;;;3.53;2.83;;;33.10;66.30;;;;;;5005142;28;20478;-69
2023/07/15 09:09:42;;;;;;;3.43;2.93;;;33.00;65.50;;;;;;5002699;28;20169;-70
2023/07/15 09:12:10;;;;;;;2.53;2.33;;;32.60;65.00;;;;;;5005248;28;20184;-70
2023/07/15 09:14:45;;;;;;;2.70;2.50;;;32.60;63.70;;;;;;5004442;28;20907;-70
2023/07/15 09:17:21;;;;;;;3.33;2.73;;;32.50;65.80;;;;;;5004136;28;20474;-70
2023/07/15 09:19:47;;;;;;;5.87;2.60;;;32.60;65.80;;;;;;5003728;28;20412;-70
2023/07/15 09:22:13;;;;;;;3.20;2.60;;;32.70;65.60;;;;;;5000474;28;20496;-71
2023/07/15 09:24:39;;;;;;;2.90;2.60;;;32.70;65.10;;;;;;5003081;28;20415;-70
2023/07/15 09:27:06;;;;;;;2.57;2.37;;;32.70;64.00;;;;;;5003553;28;20195;-70
2023/07/15 09:29:32;;;;;;;3.20;2.67;;;32.80;64.90;;;;;;5005387;28;20411;-70
2023/07/15 09:31:58;;;;;;;4.60;2.77;;;32.90;63.30;;;;;;5002358;28;21024;-70
2023/07/15 09:34:24;;;;;;;4.27;2.83;;;33.10;63.10;;;;;;5004988;28;20547;-70
2023/07/15 09:36:51;;;;;;;3.37;2.67;;;33.30;64.50;;;;;;5003886;28;20191;-70
2023/07/15 09:39:19;;;;;;;2.50;2.30;;;33.30;62.00;;;;;;5006156;28;20882;-70
2023/07/15 09:42:05;;;;;;;4.10;2.67;;;33.30;62.00;;;;;;5002644;28;20403;-69
2023/07/15 09:44:38;;;;;;;2.80;2.50;;;33.40;61.10;;;;;;5000724;28;20396;-70
2023/07/15 09:47:05;;;;;;;2.80;2.33;;;33.70;62.10;;;;;;5004986;28;20423;-70
2023/07/15 09:49:31;;;;;;;4.23;3.10;;;34.00;59.90;;;;;;5003526;28;20893;-69
2023/07/15 09:51:58;;;;;;;3.70;2.67;;;34.30;60.10;;;;;;5001448;28;20419;-70
2023/07/15 09:54:26;;;;;;;5.43;2.97;;;34.30;59.10;;;;;;5004693;28;20478;-68
2023/07/15 09:56:56;;;;;;;3.60;2.60;;;34.30;58.60;;;;;;5002260;28;20415;-69
2023/07/15 09:59:25;;;;;;;3.00;2.70;;;34.50;59.10;;;;;;5001517;28;20898;-70
2023/07/15 10:01:56;;;;;;;4.57;3.37;;;34.30;57.10;;;;;;5002473;28;20813;-70
2023/07/15 10:04:29;;;;;;;3.97;2.93;;;34.10;57.20;;;;;;4986632;28;20415;-70
2023/07/15 10:06:55;;;;;;;2.80;2.50;;;34.00;57.30;;;;;;5002874;28;20485;-70
2023/07/15 10:09:22;;;;;;;4.30;2.70;;;34.20;58.30;;;;;;5005422;28;20407;-70
2023/07/15 10:11:51;;;;;;;2.77;2.57;;;34.30;57.60;;;;;;5002017;28;20176;-69
2023/07/15 10:14:18;;;;;;;3.00;2.70;;;34.20;57.20;;;;;;4986963;28;20454;-70
2023/07/15 10:16:44;;;;;;;2.67;2.47;;;34.30;57.10;;;;;;5002977;28;20469;-70
2023/07/15 10:19:37;;;;;;;3.67;2.87;;;34.30;58.10;;;;;;5000112;28;20439;-70
2023/07/15 10:22:03;;;;;;;3.37;2.60;;;34.80;58.20;;;;;;5001198;28;20168;-69
2023/07/15 10:24:29;;;;;;;2.93;2.73;;;34.70;57.30;;;;;;4985486;28;20423;-69
2023/07/15 10:26:55;;;;;;;2.47;2.27;;;34.70;55.80;;;;;;5004323;28;20223;-70
2023/07/15 10:29:23;;;;;;;10.00;2.73;;;35.10;55.00;;;;;;5004446;28;20826;-70
2023/07/15 10:32:09;;;;;;;5.30;2.73;;;35.30;55.60;;;;;;5002463;28;20200;-69
2023/07/15 10:34:47;;;;;;;2.97;2.40;;;35.20;54.50;;;;;;4998285;28;21020;-70
2023/07/15 10:37:16;;;;;;;2.83;2.40;;;35.00;55.50;;;;;;4998435;28;20427;-70
2023/07/15 10:39:42;;;;;;;3.60;2.43;;;34.90;54.90;;;;;;5004356;28;20399;-69
2023/07/15 10:42:16;;;;;;;4.50;2.50;;;35.00;54.90;;;;;;5005403;28;20431;-69
2023/07/15 10:44:53;;;;;;;6.37;2.73;;;35.20;55.80;;;;;;5007224;28;20403;-70
2023/07/15 10:47:20;;;;;;;2.57;2.33;;;34.90;55.60;;;;;;5006063;28;20933;-69
2023/07/15 10:49:48;;;;;;;4.50;2.63;;;35.00;54.00;;;;;;5005662;28;20403;-69
2023/07/15 10:52:19;;;;;;;3.33;2.30;;;35.50;54.00;;;;;;5008462;28;20403;-69
2023/07/15 10:54:46;;;;;;;2.60;2.40;;;35.50;56.50;;;;;;5001678;28;20451;-69
2023/07/15 10:57:16;;;;;;;3.80;2.60;;;35.80;53.90;;;;;;5007365;28;20426;-70
2023/07/15 10:59:44;;;;;;;2.40;2.20;;;36.00;52.40;;;;;;5004083;28;20408;-70
2023/07/15 11:02:10;;;;;;;2.77;2.27;;;35.90;51.50;;;;;;5007456;28;20410;-70
2023/07/15 11:04:38;;;;;;;2.33;2.13;;;36.10;52.20;;;;;;5005262;28;20411;-70
2023/07/15 11:07:09;;;;;;;2.43;1.90;;;36.30;52.10;;;;;;5007782;28;20498;-69
2023/07/15 11:09:41;;;;;;;2.67;2.47;;;36.70;50.50;;;;;;5004754;28;20400;-68
2023/07/15 11:12:07;;;;;;;3.40;2.77;;;36.80;50.30;;;;;;5006584;28;20824;-71
2023/07/15 11:14:33;;;;;;;2.40;2.20;;;36.70;51.90;;;;;;5005285;28;20451;-71
2023/07/15 11:17:01;;;;;;;2.37;2.07;;;36.20;51.00;;;;;;5007105;28;20952;-68
2023/07/15 11:19:28;;;;;;;2.57;2.37;;;36.40;51.70;;;;;;5002112;28;20198;-70
2023/07/15 11:21:55;;;;;;;2.57;2.37;;;36.70;51.90;;;;;;5005124;28;20458;-70
2023/07/15 11:24:23;;;;;;;2.50;2.30;;;36.90;52.30;;;;;;5007627;28;20411;-71
2023/07/15 11:26:49;;;;;;;2.30;2.10;;;37.00;50.90;;;;;;4983340;28;20438;-68
2023/07/15 11:29:23;;;;;;;2.30;2.10;;;37.20;48.70;;;;;;5005261;28;20412;-68
2023/07/15 11:31:49;;;;;;;2.80;2.30;;;37.20;48.80;;;;;;5005869;28;20411;-71
2023/07/15 11:34:20;;;;;;;2.67;2.43;;;37.50;50.20;;;;;;5005062;28;20455;-71
2023/07/15 11:36:47;;;;;;;3.03;2.73;;;38.50;47.00;;;;;;5007509;28;20431;-70
2023/07/15 11:39:13;;;;;;;2.70;2.50;;;38.40;47.70;;;;;;5001648;28;20758;-70
2023/07/15 11:41:40;;;;;;;2.37;2.10;;;38.20;46.50;;;;;;5005742;28;20968;-70
2023/07/15 11:44:10;;;;;;;2.53;2.33;;;38.50;46.20;;;;;;5005142;28;20550;-71
2023/07/15 11:46:37;;;;;;;11.50;3.33;;;39.50;44.90;;;;;;5007519;28;20465;-71
2023/07/15 11:49:05;;;;;;;4.10;2.20;;;38.60;44.50;;;;;;5005199;28;20907;-71
2023/07/15 11:51:34;;;;;;;3.80;2.70;;;38.10;48.00;;;;;;5003575;28;20411;-70
2023/07/15 11:54:00;;;;;;;3.10;2.90;;;37.20;50.30;;;;;;5004123;28;20404;-70
2023/07/15 11:56:53;;;;;;;3.13;2.40;;;36.80;52.50;;;;;;5007205;28;20931;-70
2023/07/15 11:59:31;;;;;;;3.93;2.60;;;37.10;50.80;;;;;;5001336;28;20842;-70
2023/07/15 12:01:59;;;;;;;2.60;2.40;;;36.80;51.50;;;;;;5006785;28;20815;-70
2023/07/15 12:04:28;;;;;;;3.30;3.00;;;36.70;51.20;;;;;;5005397;28;20407;-69
2023/07/15 12:06:54;;;;;;;2.73;2.53;;;36.90;51.90;;;;;;5004888;28;20471;-70
2023/07/15 12:09:24;;;;;;;2.70;2.50;;;37.30;49.10;;;;;;5004918;28;20406;-70
2023/07/15 12:11:50;;;;;;;3.73;2.50;;;37.90;50.10;;;;;;5004179;28;20412;-70
2023/07/15 12:14:17;;;;;;;2.20;2.00;;;38.80;47.50;;;;;;5005784;28;20501;-70
2023/07/15 12:16:44;;;;;;;3.13;2.53;;;40.60;45.30;;;;;;5006373;28;20611;-70
2023/07/15 12:19:12;;;;;;;3.90;3.03;;;39.70;46.30;;;;;;5004223;28;20396;-71
2023/07/15 12:21:38;;;;;;;5.03;2.60;;;38.80;47.20;;;;;;5003029;28;20973;-70
2023/07/15 12:24:05;;;;;;;3.43;2.20;;;38.70;47.20;;;;;;5004883;28;20451;-70
2023/07/15 12:26:31;;;;;;;3.47;3.17;;;38.50;47.00;;;;;;5006363;28;20394;-70
2023/07/15 12:28:57;;;;;;;6.60;2.90;;;39.40;46.60;;;;;;5003533;28;20395;-70
2023/07/15 12:31:23;;;;;;;2.50;2.30;;;40.70;44.50;;;;;;5004170;28;20221;-70
2023/07/15 12:33:49;;;;;;;4.13;2.87;;;40.90;45.20;;;;;;4986618;28;20400;-70
2023/07/15 12:36:16;;;;;;;3.70;3.10;;;41.40;45.40;;;;;;5006357;28;20631;-71
2023/07/15 12:38:43;;;;;;;5.53;3.23;;;40.90;45.70;;;;;;5003338;28;20188;-71
2023/07/15 12:41:09;;;;;;;4.30;3.20;;;39.80;46.70;;;;;;5005541;28;20416;-71
2023/07/15 12:43:36;;;;;;;6.20;3.00;;;39.40;47.00;;;;;;5003701;28;20407;-71
2023/07/15 12:46:02;;;;;;;3.00;2.80;;;40.10;46.20;;;;;;5006360;28;20409;-71
2023/07/15 12:48:29;;;;;;;5.53;2.50;;;41.00;44.00;;;;;;5004330;28;20492;-71